Time;durP1;ratioP1;P1;durP2;ratioP2;P2;SDS_P1;SDS_P2;PMS_P1;PMS_P2;Temp;Humidity;BMP_temperature;BMP_pressure;BME280_temperature;BME280_humidity;BME280_pressure;Samples;Min_cycle;Max_cycle;Signal;HPM_P1;HPM_P2
2021/01/25 00:02:09;;;;;;;5.67;3.60;;;1.70;90.90;;;;;;6183669;28;20051;-78
2021/01/25 00:05:11;;;;;;;3.77;2.87;;;1.70;90.90;;;;;;6190363;28;20138;-78
2021/01/25 00:08:12;;;;;;;8.10;5.07;;;1.70;91.00;;;;;;6196639;28;20494;-78
2021/01/25 00:11:14;;;;;;;9.40;5.20;;;1.70;91.30;;;;;;6187828;28;20129;-78
2021/01/25 00:14:15;;;;;;;16.80;6.33;;;1.80;91.10;;;;;;6193935;28;20046;-79
2021/01/25 00:17:17;;;;;;;14.67;3.97;;;1.80;91.00;;;;;;6190943;28;20516;-78
2021/01/25 00:20:19;;;;;;;5.40;4.03;;;1.80;90.90;;;;;;6187205;28;20126;-79
2021/01/25 00:23:20;;;;;;;3.50;2.80;;;1.70;90.90;;;;;;6183037;28;20066;-78
2021/01/25 00:26:21;;;;;;;3.83;2.87;;;1.60;91.30;;;;;;6186534;28;20081;-79
2021/01/25 00:29:23;;;;;;;6.40;2.80;;;1.60;91.60;;;;;;6195812;28;20512;-79
2021/01/25 00:32:25;;;;;;;5.13;3.70;;;1.60;91.70;;;;;;6183111;28;20051;-78
2021/01/25 00:35:26;;;;;;;4.47;3.60;;;1.60;91.60;;;;;;6183279;28;20051;-79
2021/01/25 00:38:28;;;;;;;4.37;2.77;;;1.60;91.70;;;;;;6177485;28;20047;-79
2021/01/25 00:41:29;;;;;;;3.90;2.53;;;1.60;91.70;;;;;;6194366;28;20181;-79
2021/01/25 00:44:30;;;;;;;5.70;2.70;;;1.70;91.70;;;;;;6186132;28;20133;-79
2021/01/25 00:47:33;;;;;;;4.20;3.10;;;1.60;91.60;;;;;;6191455;28;20038;-79
2021/01/25 00:50:34;;;;;;;3.93;3.50;;;1.60;91.90;;;;;;6180921;28;20089;-78
2021/01/25 00:53:35;;;;;;;3.47;2.43;;;1.70;91.50;;;;;;6180182;28;20054;-79
2021/01/25 00:56:37;;;;;;;2.77;2.30;;;1.80;91.40;;;;;;6201847;28;20688;-79
2021/01/25 00:59:38;;;;;;;3.83;2.80;;;1.80;91.30;;;;;;6188233;28;20053;-79
2021/01/25 01:02:40;;;;;;;2.97;2.40;;;1.80;91.20;;;;;;6195168;28;20070;-80
2021/01/25 01:05:42;;;;;;;3.50;2.57;;;1.90;91.30;;;;;;6192191;28;20101;-79
2021/01/25 01:08:43;;;;;;;5.93;3.20;;;1.80;91.40;;;;;;6191955;28;20512;-79
2021/01/25 01:11:45;;;;;;;4.17;2.93;;;1.80;91.30;;;;;;6191264;28;20126;-79
2021/01/25 01:14:46;;;;;;;6.00;3.90;;;1.90;91.20;;;;;;6183817;28;20061;-79
2021/01/25 01:17:48;;;;;;;8.70;2.93;;;1.90;91.40;;;;;;6185413;28;20684;-79
2021/01/25 01:20:50;;;;;;;5.03;2.93;;;1.90;91.40;;;;;;6183857;28;20074;-78
2021/01/25 01:23:51;;;;;;;4.17;3.53;;;1.90;90.90;;;;;;6193748;28;20058;-78
2021/01/25 01:26:52;;;;;;;3.40;3.00;;;1.90;90.80;;;;;;6188168;28;20591;-78
2021/01/25 01:29:53;;;;;;;5.80;3.30;;;2.00;90.80;;;;;;6191874;28;20078;-78
2021/01/25 01:32:56;;;;;;;3.03;2.47;;;1.90;90.70;;;;;;6199118;28;20059;-78
2021/01/25 01:35:57;;;;;;;4.13;2.77;;;2.00;90.70;;;;;;6195138;28;20121;-79
2021/01/25 01:38:58;;;;;;;4.10;3.47;;;2.00;90.40;;;;;;6192841;28;20046;-79
2021/01/25 01:42:00;;;;;;;5.07;3.33;;;1.90;89.90;;;;;;6189560;28;20699;-79
2021/01/25 01:45:02;;;;;;;4.07;3.67;;;1.90;90.30;;;;;;6186048;28;20126;-79
2021/01/25 01:48:06;;;;;;;8.17;4.10;;;1.90;90.60;;;;;;6188600;28;20126;-79
2021/01/25 01:51:07;;;;;;;6.93;4.00;;;1.90;90.90;;;;;;6187061;28;20165;-79
2021/01/25 01:54:09;;;;;;;5.80;4.40;;;1.90;91.10;;;;;;6193365;28;20052;-79
2021/01/25 01:57:11;;;;;;;5.17;3.60;;;1.90;91.30;;;;;;6190951;28;20544;-79
2021/01/25 02:00:14;;;;;;;6.10;4.40;;;1.90;91.50;;;;;;6189985;28;20043;-79
2021/01/25 02:03:16;;;;;;;4.97;3.67;;;1.90;91.80;;;;;;6188901;28;20069;-79
2021/01/25 02:06:18;;;;;;;7.57;5.57;;;1.90;92.00;;;;;;6182430;28;20049;-79
2021/01/25 02:09:20;;;;;;;7.17;4.03;;;1.80;92.20;;;;;;6182975;28;20047;-79
2021/01/25 02:12:22;;;;;;;5.53;3.23;;;1.80;92.40;;;;;;6193728;28;20133;-79
2021/01/25 02:15:24;;;;;;;7.33;3.10;;;1.70;92.80;;;;;;6190724;28;20125;-79
2021/01/25 02:18:27;;;;;;;5.70;3.50;;;1.60;93.10;;;;;;6189310;28;20046;-79
2021/01/25 02:21:31;;;;;;;3.83;3.47;;;1.50;93.40;;;;;;6188696;28;20564;-79
2021/01/25 02:24:38;;;;;;;6.03;3.77;;;1.40;93.90;;;;;;6189409;28;20050;-79
2021/01/25 02:27:42;;;;;;;5.20;3.17;;;1.50;94.30;;;;;;6192275;28;20050;-79
2021/01/25 02:30:44;;;;;;;4.63;3.83;;;1.50;94.50;;;;;;6197561;28;20050;-79
2021/01/25 02:33:48;;;;;;;5.17;4.07;;;1.40;94.60;;;;;;6181586;28;20154;-79
2021/01/25 02:36:49;;;;;;;5.27;3.47;;;1.40;95.00;;;;;;6200762;28;20479;-79
2021/01/25 02:39:58;;;;;;;8.77;4.43;;;1.40;95.10;;;;;;6183765;28;20126;-79
2021/01/25 02:43:01;;;;;;;6.13;4.03;;;1.40;95.30;;;;;;6190081;28;20509;-79
2021/01/25 02:46:03;;;;;;;6.60;4.53;;;1.40;95.50;;;;;;6190984;28;20049;-79
2021/01/25 02:49:05;;;;;;;4.93;3.90;;;1.30;95.70;;;;;;6189226;28;20066;-78
2021/01/25 02:52:07;;;;;;;9.53;5.30;;;1.40;96.10;;;;;;6187391;28;20125;-79
2021/01/25 02:55:10;;;;;;;5.67;4.87;;;1.40;96.10;;;;;;6197146;28;20069;-78
2021/01/25 02:58:12;;;;;;;6.03;3.77;;;1.50;96.00;;;;;;6200677;22;20061;-77
2021/01/25 03:01:14;;;;;;;5.40;4.30;;;1.50;95.90;;;;;;6173504;28;20049;-77
2021/01/25 03:04:16;;;;;;;6.40;3.27;;;1.50;96.20;;;;;;6173903;28;20046;-77
2021/01/25 03:07:17;;;;;;;6.83;3.60;;;1.50;96.50;;;;;;6173809;28;20053;-77
2021/01/25 03:10:19;;;;;;;4.70;4.00;;;1.50;96.70;;;;;;6173535;28;20057;-77
2021/01/25 03:13:26;;;;;;;8.60;3.43;;;1.50;96.80;;;;;;6173683;28;20138;-77
2021/01/25 03:16:27;;;;;;;4.50;4.10;;;1.50;96.90;;;;;;6173148;28;20512;-77
2021/01/25 03:19:29;;;;;;;4.47;3.93;;;1.40;97.20;;;;;;6173090;28;20282;-76
2021/01/25 03:22:30;;;;;;;6.17;4.47;;;1.40;97.40;;;;;;6173440;28;20054;-77
2021/01/25 03:25:31;;;;;;;6.20;3.90;;;1.40;97.50;;;;;;6174274;28;20051;-77
2021/01/25 03:28:34;;;;;;;5.17;4.13;;;1.40;97.70;;;;;;6172979;28;20556;-77
2021/01/25 03:31:36;;;;;;;4.47;4.00;;;1.30;98.20;;;;;;6172997;28;20101;-77
2021/01/25 03:34:37;;;;;;;4.23;3.03;;;1.40;98.50;;;;;;6173411;28;20047;-77
2021/01/25 03:37:39;;;;;;;7.27;3.80;;;1.30;98.50;;;;;;6173076;28;20049;-77
2021/01/25 03:40:40;;;;;;;5.27;4.07;;;1.30;98.90;;;;;;6173072;28;20116;-76
2021/01/25 03:43:43;;;;;;;5.27;4.40;;;1.30;99.20;;;;;;6173300;28;20082;-77
2021/01/25 03:46:46;;;;;;;6.03;4.67;;;1.30;99.50;;;;;;6160878;28;20526;-77
2021/01/25 03:49:47;;;;;;;6.53;5.10;;;1.30;99.80;;;;;;6156997;28;20139;-77
2021/01/25 03:52:48;;;;;;;5.53;4.53;;;1.30;99.90;;;;;;6166732;28;20460;-78
2021/01/25 03:55:50;;;;;;;5.80;5.23;;;1.30;99.90;;;;;;6164687;28;20090;-77
2021/01/25 03:58:52;;;;;;;4.97;4.43;;;1.40;99.90;;;;;;6164667;28;20050;-77
2021/01/25 04:01:53;;;;;;;5.10;3.67;;;1.30;99.90;;;;;;6157961;28;20130;-78
2021/01/25 04:04:54;;;;;;;4.70;3.57;;;1.30;99.90;;;;;;6164314;28;20050;-77
2021/01/25 04:07:56;;;;;;;5.43;3.80;;;1.30;99.90;;;;;;6175955;28;20062;-78
2021/01/25 04:10:57;;;;;;;5.03;3.90;;;1.40;99.90;;;;;;6176280;28;20066;-77
2021/01/25 04:13:59;;;;;;;4.47;3.83;;;1.40;99.90;;;;;;6174531;28;20327;-78
2021/01/25 04:17:01;;;;;;;4.17;3.10;;;1.40;99.90;;;;;;6174485;28;20051;-77
2021/01/25 04:20:03;;;;;;;4.93;4.20;;;1.40;99.90;;;;;;6174838;28;20053;-77
2021/01/25 04:23:04;;;;;;;5.87;4.33;;;1.40;99.90;;;;;;6174631;28;20123;-77
2021/01/25 04:26:06;;;;;;;7.03;4.63;;;1.50;99.90;;;;;;6174828;28;20418;-77
2021/01/25 04:29:09;;;;;;;10.83;5.73;;;1.50;99.90;;;;;;6178602;28;20051;-78
2021/01/25 04:32:10;;;;;;;4.27;3.20;;;1.70;99.90;;;;;;6179499;28;20046;-78
2021/01/25 04:35:14;;;;;;;7.40;4.37;;;1.60;99.90;;;;;;6179963;28;20046;-77
2021/01/25 04:38:15;;;;;;;9.60;5.50;;;1.60;99.90;;;;;;6182209;28;20051;-78
2021/01/25 04:41:16;;;;;;;5.30;3.70;;;1.60;99.90;;;;;;6183903;28;20137;-78
2021/01/25 04:44:22;;;;;;;4.67;4.23;;;1.60;99.90;;;;;;6183469;28;20051;-78
2021/01/25 04:47:24;;;;;;;4.70;4.20;;;1.50;99.90;;;;;;6183076;28;20096;-78
2021/01/25 04:50:26;;;;;;;6.90;6.03;;;1.50;99.90;;;;;;6183259;28;20598;-78
2021/01/25 04:53:29;;;;;;;6.70;4.77;;;1.50;99.90;;;;;;6184151;28;20042;-78
2021/01/25 04:56:31;;;;;;;4.80;4.30;;;1.50;99.90;;;;;;6184916;28;20046;-78
2021/01/25 04:59:36;;;;;;;6.77;4.60;;;1.50;99.90;;;;;;6183192;28;20039;-78
2021/01/25 05:02:40;;;;;;;6.70;4.63;;;1.50;99.90;;;;;;6165242;28;20051;-78
2021/01/25 05:05:41;;;;;;;6.17;4.57;;;1.50;99.90;;;;;;6183278;28;20471;-78
2021/01/25 05:08:43;;;;;;;5.17;4.53;;;1.50;99.90;;;;;;6181636;28;20121;-78
2021/01/25 05:11:44;;;;;;;8.63;5.77;;;1.50;99.90;;;;;;6181554;28;20078;-78
2021/01/25 05:14:46;;;;;;;7.70;6.47;;;1.50;99.90;;;;;;6183038;28;20574;-77
2021/01/25 05:17:48;;;;;;;7.07;5.23;;;1.50;99.90;;;;;;6166924;28;20144;-77
2021/01/25 05:20:54;;;;;;;7.63;6.20;;;1.60;99.90;;;;;;6162478;28;20055;-78
2021/01/25 05:24:04;;;;;;;8.80;6.00;;;1.60;99.90;;;;;;6169423;28;20058;-78
2021/01/25 05:27:06;;;;;;;8.43;6.20;;;1.60;99.90;;;;;;6168368;28;20047;-78
2021/01/25 05:30:09;;;;;;;11.87;6.70;;;1.60;99.90;;;;;;6161810;28;20055;-78
2021/01/25 05:33:11;;;;;;;8.47;6.77;;;1.60;99.90;;;;;;6170485;28;20042;-78
2021/01/25 05:36:16;;;;;;;10.97;8.60;;;1.60;99.90;;;;;;6164054;28;20050;-78
2021/01/25 05:39:19;;;;;;;12.70;10.37;;;1.70;99.90;;;;;;6169042;28;20545;-78
2021/01/25 05:42:20;;;;;;;9.37;7.57;;;1.70;99.90;;;;;;6173773;28;20130;-78
2021/01/25 05:45:24;;;;;;;10.67;7.73;;;1.60;99.90;;;;;;6170947;28;20609;-78
2021/01/25 05:48:25;;;;;;;10.20;7.27;;;1.60;99.90;;;;;;6166487;28;20572;-78
2021/01/25 05:51:31;;;;;;;10.23;7.13;;;1.60;99.90;;;;;;6179307;28;20463;-78
2021/01/25 05:54:33;;;;;;;9.30;6.77;;;1.70;99.90;;;;;;6168835;28;20086;-78
2021/01/25 05:57:34;;;;;;;15.93;7.70;;;1.70;99.90;;;;;;6161279;28;20138;-78
2021/01/25 06:00:36;;;;;;;8.30;6.47;;;1.70;99.90;;;;;;6179425;28;20062;-79
2021/01/25 06:03:38;;;;;;;10.83;8.40;;;1.70;99.90;;;;;;6156437;28;20069;-78
2021/01/25 06:06:39;;;;;;;8.40;7.00;;;1.70;99.90;;;;;;6181973;28;20050;-78
2021/01/25 06:09:47;;;;;;;8.40;6.73;;;1.80;99.90;;;;;;6183068;28;20055;-78
2021/01/25 06:12:57;;;;;;;10.70;8.57;;;1.90;99.90;;;;;;6182213;28;20053;-79
2021/01/25 06:16:00;;;;;;;10.67;8.77;;;2.00;99.90;;;;;;6181914;28;20055;-78
2021/01/25 06:19:03;;;;;;;9.27;7.47;;;2.20;99.90;;;;;;6181582;28;20051;-78
2021/01/25 06:22:07;;;;;;;7.60;6.47;;;2.20;99.90;;;;;;6181476;28;20117;-79
2021/01/25 06:25:09;;;;;;;9.33;7.50;;;2.10;99.90;;;;;;6182495;28;20046;-79
2021/01/25 06:28:14;;;;;;;9.07;8.13;;;2.00;99.90;;;;;;6179004;28;20043;-76
2021/01/25 06:31:18;;;;;;;12.57;8.63;;;2.00;99.90;;;;;;6183419;28;20122;-79
2021/01/25 06:34:20;;;;;;;11.23;8.03;;;1.90;99.90;;;;;;6184671;28;20047;-80
2021/01/25 06:37:24;;;;;;;11.47;9.10;;;1.90;99.90;;;;;;6185556;28;20055;-80
2021/01/25 06:40:29;;;;;;;16.47;11.47;;;1.90;99.90;;;;;;6186124;28;20057;-79
2021/01/25 06:43:32;;;;;;;12.10;9.57;;;1.90;99.90;;;;;;6201879;28;20055;-77
2021/01/25 06:46:36;;;;;;;16.30;12.13;;;1.90;99.90;;;;;;6206238;28;20094;-78
2021/01/25 06:49:38;;;;;;;16.97;12.63;;;1.90;99.90;;;;;;6203352;28;20035;-78
2021/01/25 06:52:40;;;;;;;18.60;12.17;;;1.90;99.90;;;;;;6206069;28;20122;-78
2021/01/25 06:55:43;;;;;;;21.07;13.97;;;1.90;99.90;;;;;;6206446;28;20042;-77
2021/01/25 06:58:48;;;;;;;17.17;12.23;;;1.90;99.90;;;;;;6205567;28;20058;-77
2021/01/25 07:01:52;;;;;;;20.97;14.83;;;1.90;99.90;;;;;;6205640;28;20058;-78
2021/01/25 07:04:58;;;;;;;18.47;13.47;;;1.90;99.90;;;;;;6198071;28;20090;-77
2021/01/25 07:08:16;;;;;;;34.83;19.30;;;1.80;99.90;;;;;;6198978;28;20034;-77
2021/01/25 07:11:19;;;;;;;25.92;18.38;;;1.80;99.90;;;;;;6201048;28;20031;-77
2021/01/25 07:14:23;;;;;;;27.17;18.67;;;1.80;99.90;;;;;;6187784;28;20471;-78
2021/01/25 07:17:26;;;;;;;26.40;16.80;;;1.70;99.90;;;;;;6172473;28;20053;-79
2021/01/25 07:20:28;;;;;;;18.30;13.10;;;1.70;99.90;;;;;;6174715;28;20074;-78
2021/01/25 07:23:31;;;;;;;17.27;11.80;;;1.70;99.90;;;;;;6174656;28;20172;-79
2021/01/25 07:26:36;;;;;;;15.77;12.53;;;1.70;99.90;;;;;;6167028;28;20102;-78
2021/01/25 07:29:38;;;;;;;19.77;11.63;;;1.70;99.90;;;;;;6161627;28;20512;-78
2021/01/25 07:32:40;;;;;;;19.07;12.23;;;1.70;99.90;;;;;;6167626;28;20123;-80
2021/01/25 07:35:41;;;;;;;19.67;14.00;;;1.60;99.90;;;;;;6168750;28;20412;-78
2021/01/25 07:38:42;;;;;;;16.37;12.80;;;1.60;99.90;;;;;;6176387;28;20050;-79
2021/01/25 07:41:45;;;;;;;22.23;13.53;;;1.60;99.90;;;;;;6174951;28;20138;-79
2021/01/25 07:44:47;;;;;;;15.43;11.83;;;1.70;99.90;;;;;;6176972;28;20105;-80
2021/01/25 07:47:50;;;;;;;20.70;14.77;;;1.60;99.90;;;;;;6174921;28;20070;-79
2021/01/25 07:50:57;;;;;;;19.57;13.47;;;1.60;99.90;;;;;;6167908;28;20067;-80
2021/01/25 07:53:58;;;;;;;17.93;14.00;;;1.60;99.90;;;;;;6162702;28;20097;-78
2021/01/25 07:57:00;;;;;;;22.40;13.57;;;1.60;99.90;;;;;;6172052;28;20077;-80
2021/01/25 08:00:01;;;;;;;20.97;15.50;;;1.60;99.90;;;;;;6174288;28;20098;-79
2021/01/25 08:03:08;;;;;;;17.53;13.60;;;1.60;99.90;;;;;;6175044;28;20465;-79
2021/01/25 08:06:11;;;;;;;18.53;13.37;;;1.70;99.90;;;;;;6176160;28;20126;-79
2021/01/25 08:09:13;;;;;;;24.77;15.93;;;1.60;99.90;;;;;;6175638;28;20046;-79
2021/01/25 08:12:20;;;;;;;21.03;13.37;;;1.60;99.90;;;;;;6180684;28;20053;-79
2021/01/25 08:15:29;;;;;;;22.57;15.90;;;1.60;99.90;;;;;;6175884;28;20047;-79
2021/01/25 08:18:36;;;;;;;18.10;12.33;;;1.60;99.90;;;;;;6177437;28;20102;-78
2021/01/25 08:21:43;;;;;;;21.35;15.25;;;1.70;99.90;;;;;;6175332;28;20139;-78
2021/01/25 08:24:53;;;;;;;18.43;12.67;;;1.70;99.90;;;;;;6178398;28;20142;-80
2021/01/25 08:27:59;;;;;;;18.63;12.90;;;1.70;99.90;;;;;;6178320;28;20078;-80
2021/01/25 08:31:12;;;;;;;17.23;13.50;;;1.70;99.90;;;;;;6170254;28;20043;-79
2021/01/25 08:34:24;;;;;;;17.27;11.60;;;1.70;99.90;;;;;;6180161;28;20178;-81
2021/01/25 08:37:28;;;;;;;18.33;12.27;;;1.70;99.90;;;;;;6172646;28;20055;-79
2021/01/25 08:40:35;;;;;;;17.17;12.57;;;1.70;99.90;;;;;;6174887;28;20046;-80
2021/01/25 08:43:36;;;;;;;14.47;11.07;;;1.70;99.90;;;;;;6171986;28;20047;-78
2021/01/25 08:46:39;;;;;;;14.33;10.23;;;1.80;99.90;;;;;;6179912;28;20509;-81
2021/01/25 08:49:42;;;;;;;14.67;10.23;;;1.70;99.90;;;;;;6179437;28;20106;-80
2021/01/25 08:52:43;;;;;;;12.07;8.63;;;1.80;99.90;;;;;;6176611;28;20054;-79
2021/01/25 08:55:47;;;;;;;12.17;9.27;;;1.80;99.90;;;;;;6178398;28;20111;-79
2021/01/25 08:58:49;;;;;;;12.97;9.13;;;1.90;99.90;;;;;;6181529;28;20078;-79
2021/01/25 09:01:51;;;;;;;12.13;8.80;;;2.00;99.90;;;;;;6187437;28;20086;-81
2021/01/25 09:04:53;;;;;;;11.13;8.30;;;2.00;99.90;;;;;;6179609;28;20094;-82
2021/01/25 09:07:55;;;;;;;12.23;8.47;;;2.00;99.90;;;;;;6175772;28;20050;-80
2021/01/25 09:10:57;;;;;;;10.37;7.23;;;2.10;99.90;;;;;;6180925;28;20094;-80
2021/01/25 09:13:58;;;;;;;11.30;7.77;;;2.10;99.90;;;;;;6175958;28;20047;-80
2021/01/25 09:17:01;;;;;;;9.83;7.73;;;2.10;99.90;;;;;;6176810;28;20054;-79
2021/01/25 09:20:02;;;;;;;10.70;7.43;;;2.10;99.90;;;;;;6180730;28;20053;-81
2021/01/25 09:23:04;;;;;;;9.13;7.33;;;2.10;99.90;;;;;;6179774;28;20085;-81
2021/01/25 09:26:05;;;;;;;7.20;6.10;;;2.10;99.90;;;;;;6179960;28;20143;-80
2021/01/25 09:29:06;;;;;;;11.43;7.90;;;2.10;99.90;;;;;;6172675;28;20074;-79
2021/01/25 09:32:09;;;;;;;10.30;7.50;;;2.20;99.90;;;;;;6172735;28;20043;-78
2021/01/25 09:35:13;;;;;;;8.53;7.67;;;2.20;99.90;;;;;;6185097;28;20162;-78
2021/01/25 09:38:14;;;;;;;11.03;7.10;;;2.20;99.90;;;;;;6183072;28;20149;-78
2021/01/25 09:41:15;;;;;;;7.53;6.53;;;2.30;99.90;;;;;;6179035;28;20452;-79
2021/01/25 09:44:18;;;;;;;11.20;7.97;;;2.30;99.90;;;;;;6177874;28;20066;-78
2021/01/25 09:47:20;;;;;;;11.57;7.23;;;2.30;99.90;;;;;;6184718;28;20125;-77
2021/01/25 09:50:22;;;;;;;8.53;6.87;;;2.40;99.90;;;;;;6180859;28;20047;-80
2021/01/25 09:53:23;;;;;;;8.87;7.77;;;2.40;99.90;;;;;;6183583;28;20054;-79
2021/01/25 09:56:24;;;;;;;9.57;7.77;;;2.50;99.90;;;;;;6180093;28;20058;-81
2021/01/25 09:59:26;;;;;;;10.80;7.30;;;2.50;99.90;;;;;;6183985;28;20102;-81
2021/01/25 10:02:28;;;;;;;10.63;7.23;;;2.50;99.90;;;;;;6180570;28;20050;-78
2021/01/25 10:05:29;;;;;;;11.40;8.63;;;2.50;99.90;;;;;;6185640;28;20079;-80
2021/01/25 10:08:30;;;;;;;13.97;10.60;;;2.50;99.90;;;;;;6185259;28;20518;-80
2021/01/25 10:11:32;;;;;;;10.30;6.73;;;2.60;99.90;;;;;;6186973;28;20533;-79
2021/01/25 10:14:33;;;;;;;11.77;9.10;;;2.60;99.90;;;;;;6181669;28;20142;-79
2021/01/25 10:17:35;;;;;;;14.10;8.40;;;2.70;99.90;;;;;;6186605;28;20063;-81
2021/01/25 10:20:37;;;;;;;12.03;9.23;;;2.70;99.90;;;;;;6202065;28;20046;-80
2021/01/25 10:23:38;;;;;;;12.67;8.67;;;2.70;99.90;;;;;;6183650;28;20062;-80
2021/01/25 10:26:39;;;;;;;17.83;10.07;;;2.80;99.90;;;;;;6182297;28;20065;-79
2021/01/25 10:29:41;;;;;;;13.63;9.73;;;2.80;99.90;;;;;;6182063;28;20386;-80
2021/01/25 10:32:43;;;;;;;18.13;11.13;;;2.90;99.90;;;;;;6181426;28;20186;-81
2021/01/25 10:35:45;;;;;;;14.40;9.93;;;2.90;99.90;;;;;;6181431;28;20154;-81
2021/01/25 10:38:48;;;;;;;14.30;10.33;;;2.90;99.90;;;;;;6181770;28;20074;-80
2021/01/25 10:41:49;;;;;;;15.77;10.40;;;2.90;99.90;;;;;;6183084;28;20051;-79
2021/01/25 10:44:50;;;;;;;14.53;10.83;;;2.90;99.90;;;;;;6181743;28;20057;-80
2021/01/25 10:47:59;;;;;;;16.77;10.97;;;2.70;99.90;;;;;;6331317;27;20987;-81
2021/01/25 10:51:00;;;;;;;17.87;11.17;;;2.70;99.90;;;;;;6315050;28;20118;-81
2021/01/25 10:54:01;;;;;;;18.43;11.27;;;2.70;99.90;;;;;;6301615;28;20151;-81
2021/01/25 10:57:03;;;;;;;18.80;10.80;;;2.60;99.90;;;;;;6300590;28;20131;-80
2021/01/25 11:00:07;;;;;;;22.03;11.67;;;2.60;99.90;;;;;;6299977;28;20541;-80
2021/01/25 11:03:12;;;;;;;15.33;10.73;;;2.60;99.90;;;;;;6299708;28;20124;-81
2021/01/25 11:06:14;;;;;;;15.43;9.50;;;2.70;99.90;;;;;;6300428;28;20051;-81
2021/01/25 11:09:15;;;;;;;18.40;11.33;;;2.70;99.90;;;;;;6300322;28;20048;-81
2021/01/25 11:12:17;;;;;;;14.77;9.60;;;2.60;99.90;;;;;;6298393;28;20102;-81
2021/01/25 11:15:18;;;;;;;15.13;10.27;;;2.60;99.90;;;;;;6298055;28;20040;-80
2021/01/25 11:18:21;;;;;;;14.30;9.47;;;2.50;99.90;;;;;;6300989;28;20119;-80
2021/01/25 11:21:22;;;;;;;15.33;10.90;;;2.50;99.90;;;;;;6300906;28;20094;-80
2021/01/25 11:24:24;;;;;;;14.37;10.37;;;2.40;99.90;;;;;;6300076;28;20127;-80
2021/01/25 11:27:25;;;;;;;14.57;10.57;;;2.40;99.90;;;;;;6299238;28;20060;-79
2021/01/25 11:30:26;;;;;;;13.80;9.53;;;2.40;99.90;;;;;;6298754;28;20059;-80
2021/01/25 11:33:30;;;;;;;16.47;9.90;;;2.40;99.90;;;;;;6300479;28;20099;-80
2021/01/25 11:36:31;;;;;;;15.03;9.20;;;2.30;99.90;;;;;;6298482;28;20064;-80
2021/01/25 11:39:33;;;;;;;19.77;12.30;;;2.30;99.90;;;;;;6306993;28;20140;-80
2021/01/25 11:42:34;;;;;;;16.27;10.17;;;2.30;99.90;;;;;;6320157;28;20047;-81
2021/01/25 11:45:37;;;;;;;15.83;10.63;;;2.30;99.90;;;;;;6324426;28;20521;-80
2021/01/25 11:48:39;;;;;;;16.43;10.70;;;2.30;99.90;;;;;;6323807;28;20052;-80
2021/01/25 11:51:41;;;;;;;17.13;11.03;;;2.30;99.90;;;;;;6324821;28;20044;-79
2021/01/25 11:54:42;;;;;;;19.27;12.07;;;2.40;99.90;;;;;;6325293;28;20052;-80
2021/01/25 11:57:44;;;;;;;14.67;9.17;;;2.40;99.90;;;;;;6317347;28;20072;-80
2021/01/25 12:00:45;;;;;;;16.90;11.57;;;2.50;99.90;;;;;;6308929;28;20053;-79
2021/01/25 12:03:47;;;;;;;15.40;11.10;;;2.50;99.90;;;;;;6307902;28;20136;-77
2021/01/25 12:06:52;;;;;;;19.43;10.90;;;2.60;99.90;;;;;;6308249;28;20075;-78
2021/01/25 12:09:53;;;;;;;20.03;13.47;;;2.70;99.90;;;;;;6308874;28;20048;-77
2021/01/25 12:12:55;;;;;;;17.77;11.63;;;2.80;99.90;;;;;;6301508;28;20108;-79
2021/01/25 12:15:56;;;;;;;18.33;12.30;;;2.90;99.90;;;;;;6280651;28;20045;-78
2021/01/25 12:18:58;;;;;;;16.07;11.07;;;2.90;99.90;;;;;;6282373;28;20064;-79
2021/01/25 12:21:59;;;;;;;17.67;11.00;;;3.00;99.90;;;;;;6281083;28;20048;-77
2021/01/25 12:25:01;;;;;;;19.37;11.93;;;3.00;99.90;;;;;;6281699;28;20091;-78
2021/01/25 12:28:03;;;;;;;19.83;10.77;;;3.00;99.90;;;;;;6279321;28;20041;-79
2021/01/25 12:31:07;;;;;;;15.73;11.27;;;3.00;99.90;;;;;;6280906;28;20052;-79
2021/01/25 12:34:09;;;;;;;16.83;11.30;;;3.00;99.90;;;;;;6280871;28;20784;-77
2021/01/25 12:37:10;;;;;;;13.47;10.73;;;3.00;99.90;;;;;;6284148;28;20044;-77
2021/01/25 12:40:13;;;;;;;16.13;11.13;;;3.10;99.90;;;;;;6281634;28;20098;-76
2021/01/25 12:43:14;;;;;;;18.03;12.17;;;3.00;99.90;;;;;;6279173;28;20045;-77
2021/01/25 12:46:15;;;;;;;22.37;17.10;;;3.00;99.90;;;;;;6275971;28;20079;-77
2021/01/25 12:49:19;;;;;;;95.37;67.00;;;3.00;99.90;;;;;;6277424;28;20056;-77
2021/01/25 12:52:20;;;;;;;55.33;36.23;;;3.00;99.90;;;;;;6280263;28;20045;-79
2021/01/25 12:55:22;;;;;;;79.90;50.63;;;3.00;99.90;;;;;;6281528;28;20076;-78
2021/01/25 12:58:23;;;;;;;21.40;14.03;;;3.00;99.90;;;;;;6281231;28;20513;-78
2021/01/25 13:01:24;;;;;;;16.83;12.73;;;3.10;99.90;;;;;;6281766;28;20068;-78
2021/01/25 13:04:27;;;;;;;21.00;13.10;;;3.10;99.90;;;;;;6279041;28;20131;-77
2021/01/25 13:07:29;;;;;;;28.00;16.03;;;3.20;99.90;;;;;;6277099;28;20064;-77
2021/01/25 13:10:30;;;;;;;20.70;15.20;;;3.30;99.90;;;;;;6279071;28;20075;-77
2021/01/25 13:13:32;;;;;;;18.93;13.80;;;3.30;99.90;;;;;;6265527;28;20053;-78
2021/01/25 13:16:34;;;;;;;27.17;19.40;;;3.40;99.90;;;;;;6269361;28;20083;-78
2021/01/25 13:19:36;;;;;;;18.05;13.52;;;3.40;99.90;;;;;;6271081;28;20063;-77
2021/01/25 13:22:37;;;;;;;85.47;52.05;;;3.40;99.90;;;;;;6272670;28;20041;-78
2021/01/25 13:25:38;;;;;;;78.20;52.88;;;3.60;99.90;;;;;;6272189;28;20253;-78
2021/01/25 13:28:40;;;;;;;29.13;18.92;;;3.70;99.90;;;;;;6269006;28;20115;-78
2021/01/25 13:31:41;;;;;;;50.88;33.10;;;3.70;99.90;;;;;;6265787;28;20041;-77
2021/01/25 13:34:43;;;;;;;20.02;14.35;;;3.70;99.90;;;;;;6274397;28;20111;-78
2021/01/25 13:37:45;;;;;;;24.25;18.30;;;3.80;99.90;;;;;;6269742;28;20067;-79
2021/01/25 13:40:47;;;;;;;54.35;34.83;;;3.80;99.90;;;;;;6274677;28;20060;-78
2021/01/25 13:43:48;;;;;;;80.03;40.97;;;3.90;99.90;;;;;;6270113;28;20049;-80
2021/01/25 13:46:49;;;;;;;48.35;27.77;;;3.90;99.90;;;;;;6265232;28;20121;-80
2021/01/25 13:49:51;;;;;;;61.35;35.67;;;3.90;99.90;;;;;;6270767;28;20041;-78
2021/01/25 13:52:53;;;;;;;61.70;32.00;;;4.00;99.90;;;;;;6273429;28;20133;-78
2021/01/25 13:55:55;;;;;;;34.17;20.75;;;4.00;99.90;;;;;;6281099;28;20506;-79
2021/01/25 13:58:56;;;;;;;78.72;44.42;;;4.00;99.90;;;;;;6270166;28;20565;-78
2021/01/25 14:01:58;;;;;;;42.55;26.30;;;3.90;99.90;;;;;;6265309;28;20091;-78
2021/01/25 14:05:00;;;;;;;71.45;40.53;;;3.90;99.90;;;;;;6267194;28;20128;-78
2021/01/25 14:08:01;;;;;;;65.95;36.67;;;3.90;99.90;;;;;;6262482;28;20123;-77
2021/01/25 14:11:02;;;;;;;88.72;50.13;;;3.80;99.90;;;;;;6269720;28;20041;-78
2021/01/25 14:14:04;;;;;;;21.20;14.02;;;3.80;99.90;;;;;;6262992;28;20053;-78
2021/01/25 14:17:05;;;;;;;26.80;13.82;;;3.90;99.90;;;;;;6276984;28;20458;-78
2021/01/25 14:20:11;;;;;;;12.57;8.75;;;3.80;99.90;;;;;;6264053;28;20126;-79
2021/01/25 14:23:12;;;;;;;45.33;26.33;;;3.80;99.90;;;;;;6261045;28;20061;-79
2021/01/25 14:26:13;;;;;;;15.25;10.38;;;3.80;99.90;;;;;;6279191;28;20075;-78
2021/01/25 14:29:15;;;;;;;9.43;7.40;;;3.80;99.90;;;;;;6273230;28;20049;-77
2021/01/25 14:32:17;;;;;;;14.68;9.27;;;3.70;99.90;;;;;;6267874;28;20135;-79
2021/01/25 14:35:23;;;;;;;11.25;8.63;;;3.70;99.90;;;;;;6266558;28;20049;-79
2021/01/25 14:38:24;;;;;;;11.60;8.02;;;3.70;99.90;;;;;;6274279;28;20052;-78
2021/01/25 14:41:26;;;;;;;11.35;8.00;;;3.70;99.90;;;;;;6276277;28;20045;-78
2021/01/25 14:44:27;;;;;;;12.35;9.07;;;3.70;99.90;;;;;;6274497;28;20048;-79
2021/01/25 14:47:29;;;;;;;13.18;9.82;;;3.70;99.90;;;;;;6273145;28;20101;-79
2021/01/25 14:50:32;;;;;;;13.13;9.60;;;3.80;99.90;;;;;;6274577;28;20418;-79
2021/01/25 14:53:33;;;;;;;12.35;8.75;;;3.80;99.90;;;;;;6271225;28;20045;-79
2021/01/25 14:56:34;;;;;;;13.98;9.15;;;3.80;99.90;;;;;;6264831;28;20060;-79
2021/01/25 14:59:35;;;;;;;16.23;9.32;;;3.70;99.90;;;;;;6271107;28;20128;-77
2021/01/25 15:02:37;;;;;;;12.73;8.45;;;3.70;99.90;;;;;;6276748;28;20124;-79
2021/01/25 15:05:39;;;;;;;15.05;8.95;;;3.70;99.90;;;;;;6270979;28;20056;-79
2021/01/25 15:08:41;;;;;;;13.07;9.20;;;3.70;99.90;;;;;;6270150;28;20056;-80
2021/01/25 15:11:42;;;;;;;12.48;9.23;;;3.60;99.90;;;;;;6258218;28;20047;-79
2021/01/25 15:14:44;;;;;;;14.80;10.10;;;3.60;99.90;;;;;;6259408;28;20110;-79
2021/01/25 15:17:46;;;;;;;13.77;9.32;;;3.70;99.90;;;;;;6269237;28;20054;-79
2021/01/25 15:20:48;;;;;;;14.10;9.37;;;3.60;99.90;;;;;;6262535;28;20104;-78
2021/01/25 15:23:54;;;;;;;19.42;10.23;;;3.60;99.90;;;;;;6275318;28;20080;-77
2021/01/25 15:27:01;;;;;;;17.40;11.13;;;3.50;99.90;;;;;;6272745;28;20060;-79
2021/01/25 15:30:04;;;;;;;16.45;11.48;;;3.60;99.90;;;;;;6275261;28;20040;-77
2021/01/25 15:33:06;;;;;;;18.10;11.32;;;3.50;99.90;;;;;;6272644;28;20052;-77
2021/01/25 15:36:08;;;;;;;23.23;12.95;;;3.50;99.90;;;;;;6270685;28;20079;-77
2021/01/25 15:39:10;;;;;;;16.65;11.90;;;3.60;99.90;;;;;;6279681;28;20455;-78
2021/01/25 15:42:12;;;;;;;19.48;11.13;;;3.60;99.90;;;;;;6280939;28;20045;-78
2021/01/25 15:45:16;;;;;;;15.75;10.95;;;3.60;99.90;;;;;;6277696;28;20094;-79
2021/01/25 15:48:17;;;;;;;18.35;12.05;;;3.50;99.90;;;;;;6275365;28;20048;-79
2021/01/25 15:51:20;;;;;;;19.80;11.93;;;3.50;99.90;;;;;;6270253;28;20073;-77